Terminal Aerodrome Forecast
Issued by NWS

Home | Current Version | Previous Version | Text Only | Print | Product List | Glossary On
Versions: 1 2 3 4 5 6 7 8 9 10 11 12 13 14 15 16 17 18 19 20 21
326
FTUS43 KICT 180210 AAA
TAFCNU
TAF AMD
KCNU 180210Z 1802/1824 08005KT P6SM BKN022
      TEMPO 1802/1806 SCT020 OVC250
     FM180600 11007KT P6SM OVC015
     FM180900 13007KT 6SM BR VCTS SCT015 OVC035CB
     FM181400 13007KT P6SM SCT050=

USA.gov is the U.S. government's official web portal to all federal, state and local government web resources and services.